sensor_id;sensor_type;location;lat;lon;timestamp;pressure;altitude;pressure_sealevel;temperature;humidity
60465;BME280;46314;52.392;9.758;2023-08-17T00:00:11;101251.84;;;21.40;89.97
60465;BME280;46314;52.392;9.758;2023-08-17T00:02:39;101244.47;;;21.64;88.76
60465;BME280;46314;52.392;9.758;2023-08-17T00:05:07;101226.19;;;21.01;91.44
60465;BME280;46314;52.392;9.758;2023-08-17T00:07:33;101227.03;;;21.46;89.25
60465;BME280;46314;52.392;9.758;2023-08-17T00:10:00;101227.44;;;20.75;92.89
60465;BME280;46314;52.392;9.758;2023-08-17T00:12:26;101219.94;;;20.14;95.32
60465;BME280;46314;52.392;9.758;2023-08-17T00:14:53;101219.91;;;20.39;95.34
60465;BME280;46314;52.392;9.758;2023-08-17T00:17:20;101218.75;;;20.03;96.19
60465;BME280;46314;52.392;9.758;2023-08-17T00:19:48;101222.81;;;20.95;91.95
60465;BME280;46314;52.392;9.758;2023-08-17T00:22:14;101212.88;;;19.96;96.17
60465;BME280;46314;52.392;9.758;2023-08-17T00:24:41;101219.13;;;20.67;94.37
60465;BME280;46314;52.392;9.758;2023-08-17T00:27:08;101218.97;;;21.16;91.46
60465;BME280;46314;52.392;9.758;2023-08-17T00:29:34;101229.31;;;19.94;97.40
60465;BME280;46314;52.392;9.758;2023-08-17T00:32:01;101227.53;;;19.89;98.71
60465;BME280;46314;52.392;9.758;2023-08-17T00:34:27;101224.59;;;19.98;100.00
60465;BME280;46314;52.392;9.758;2023-08-17T00:36:55;101221.69;;;19.94;99.12
60465;BME280;46314;52.392;9.758;2023-08-17T00:39:22;101229.28;;;20.31;99.22
60465;BME280;46314;52.392;9.758;2023-08-17T00:41:48;101224.72;;;20.79;96.13
60465;BME280;46314;52.392;9.758;2023-08-17T00:46:41;101217.22;;;20.05;100.00
60465;BME280;46314;52.392;9.758;2023-08-17T00:49:07;101226.38;;;20.80;99.17
60465;BME280;46314;52.392;9.758;2023-08-17T00:51:34;101218.03;;;20.84;97.67
60465;BME280;46314;52.392;9.758;2023-08-17T00:54:02;101215.00;;;21.05;96.91
60465;BME280;46314;52.392;9.758;2023-08-17T00:56:29;101222.06;;;20.83;99.86
60465;BME280;46314;52.392;9.758;2023-08-17T00:58:56;101217.16;;;20.55;98.28
60465;BME280;46314;52.392;9.758;2023-08-17T01:01:23;101220.69;;;20.92;99.08
60465;BME280;46314;52.392;9.758;2023-08-17T01:03:50;101223.91;;;20.01;100.00
60465;BME280;46314;52.392;9.758;2023-08-17T01:06:18;101220.94;;;20.34;100.00
60465;BME280;46314;52.392;9.758;2023-08-17T01:08:45;101226.28;;;20.76;100.00
60465;BME280;46314;52.392;9.758;2023-08-17T01:11:20;101225.94;;;20.78;100.00
60465;BME280;46314;52.392;9.758;2023-08-17T01:13:52;101228.47;;;20.42;100.00
60465;BME280;46314;52.392;9.758;2023-08-17T01:16:26;101228.03;;;20.03;100.00
60465;BME280;46314;52.392;9.758;2023-08-17T01:18:54;101227.31;;;19.94;100.00
60465;BME280;46314;52.392;9.758;2023-08-17T01:21:24;101228.03;;;20.03;100.00
60465;BME280;46314;52.392;9.758;2023-08-17T01:23:51;101227.63;;;20.30;100.00
60465;BME280;46314;52.392;9.758;2023-08-17T01:26:18;101236.66;;;20.48;100.00
60465;BME280;46314;52.392;9.758;2023-08-17T01:28:45;101232.00;;;20.27;100.00
60465;BME280;46314;52.392;9.758;2023-08-17T01:31:19;101239.84;;;20.46;100.00
60465;BME280;46314;52.392;9.758;2023-08-17T01:33:49;101238.31;;;19.75;100.00
60465;BME280;46314;52.392;9.758;2023-08-17T01:36:20;101240.56;;;19.81;100.00
60465;BME280;46314;52.392;9.758;2023-08-17T01:38:52;101232.34;;;19.76;100.00
60465;BME280;46314;52.392;9.758;2023-08-17T01:41:20;101234.53;;;19.58;100.00
60465;BME280;46314;52.392;9.758;2023-08-17T01:43:47;101230.56;;;19.26;100.00
60465;BME280;46314;52.392;9.758;2023-08-17T01:46:15;101230.00;;;20.03;100.00
60465;BME280;46314;52.392;9.758;2023-08-17T01:48:42;101226.41;;;19.11;100.00
60465;BME280;46314;52.392;9.758;2023-08-17T01:51:10;101225.88;;;18.54;100.00
60465;BME280;46314;52.392;9.758;2023-08-17T01:53:36;101223.72;;;19.48;100.00
60465;BME280;46314;52.392;9.758;2023-08-17T01:56:04;101230.91;;;19.70;100.00
60465;BME280;46314;52.392;9.758;2023-08-17T01:58:31;101217.72;;;19.37;100.00
60465;BME280;46314;52.392;9.758;2023-08-17T02:00:57;101226.25;;;19.99;100.00
60465;BME280;46314;52.392;9.758;2023-08-17T02:03:24;101225.09;;;19.75;100.00
60465;BME280;46314;52.392;9.758;2023-08-17T02:05:50;101221.78;;;18.94;100.00
60465;BME280;46314;52.392;9.758;2023-08-17T02:08:17;101228.00;;;18.37;100.00
60465;BME280;46314;52.392;9.758;2023-08-17T02:10:43;101208.56;;;18.02;100.00
60465;BME280;46314;52.392;9.758;2023-08-17T02:13:11;101208.25;;;18.24;100.00
60465;BME280;46314;52.392;9.758;2023-08-17T02:15:44;101196.84;;;18.00;100.00
60465;BME280;46314;52.392;9.758;2023-08-17T02:18:10;101198.94;;;18.32;100.00
60465;BME280;46314;52.392;9.758;2023-08-17T02:20:37;101203.44;;;18.04;100.00
60465;BME280;46314;52.392;9.758;2023-08-17T02:23:03;101203.66;;;17.81;100.00
60465;BME280;46314;52.392;9.758;2023-08-17T02:25:30;101204.53;;;17.73;100.00
60465;BME280;46314;52.392;9.758;2023-08-17T02:27:56;101198.84;;;18.20;100.00
60465;BME280;46314;52.392;9.758;2023-08-17T02:30:25;101203.78;;;18.23;100.00
60465;BME280;46314;52.392;9.758;2023-08-17T02:32:51;101197.47;;;18.05;100.00
60465;BME280;46314;52.392;9.758;2023-08-17T02:35:18;101190.47;;;18.11;100.00
60465;BME280;46314;52.392;9.758;2023-08-17T02:37:44;101185.44;;;18.05;100.00
60465;BME280;46314;52.392;9.758;2023-08-17T02:40:11;101184.38;;;18.09;100.00
60465;BME280;46314;52.392;9.758;2023-08-17T02:42:37;101183.53;;;17.88;100.00
60465;BME280;46314;52.392;9.758;2023-08-17T02:45:05;101177.41;;;17.94;100.00
60465;BME280;46314;52.392;9.758;2023-08-17T02:47:33;101172.69;;;18.07;100.00
60465;BME280;46314;52.392;9.758;2023-08-17T02:49:59;101177.09;;;17.87;100.00
60465;BME280;46314;52.392;9.758;2023-08-17T02:52:26;101170.41;;;17.62;100.00
60465;BME280;46314;52.392;9.758;2023-08-17T02:54:52;101170.56;;;17.66;100.00
60465;BME280;46314;52.392;9.758;2023-08-17T02:57:19;101169.84;;;17.77;100.00
60465;BME280;46314;52.392;9.758;2023-08-17T02:59:46;101160.06;;;17.54;100.00
60465;BME280;46314;52.392;9.758;2023-08-17T03:02:12;101154.03;;;17.73;100.00
60465;BME280;46314;52.392;9.758;2023-08-17T03:04:40;101154.31;;;17.50;100.00
60465;BME280;46314;52.392;9.758;2023-08-17T03:07:07;101152.00;;;17.82;100.00
60465;BME280;46314;52.392;9.758;2023-08-17T03:09:33;101148.91;;;17.75;100.00
60465;BME280;46314;52.392;9.758;2023-08-17T03:12:00;101153.59;;;17.62;100.00
60465;BME280;46314;52.392;9.758;2023-08-17T03:14:27;101152.63;;;17.58;100.00
60465;BME280;46314;52.392;9.758;2023-08-17T03:16:53;101144.22;;;17.58;100.00
60465;BME280;46314;52.392;9.758;2023-08-17T03:19:20;101144.44;;;17.74;100.00
60465;BME280;46314;52.392;9.758;2023-08-17T03:21:48;101146.50;;;17.65;100.00
60465;BME280;46314;52.392;9.758;2023-08-17T03:24:15;101140.34;;;17.71;100.00
60465;BME280;46314;52.392;9.758;2023-08-17T03:26:41;101140.00;;;17.73;100.00
60465;BME280;46314;52.392;9.758;2023-08-17T03:29:08;101123.94;;;17.91;100.00
60465;BME280;46314;52.392;9.758;2023-08-17T03:31:34;101121.44;;;17.59;100.00
60465;BME280;46314;52.392;9.758;2023-08-17T03:34:01;101122.00;;;17.44;100.00
60465;BME280;46314;52.392;9.758;2023-08-17T03:36:28;101109.44;;;17.50;100.00
60465;BME280;46314;52.392;9.758;2023-08-17T03:38:55;101110.03;;;17.65;100.00
60465;BME280;46314;52.392;9.758;2023-08-17T03:41:22;101100.66;;;17.52;100.00
60465;BME280;46314;52.392;9.758;2023-08-17T03:43:48;101101.22;;;17.45;100.00
60465;BME280;46314;52.392;9.758;2023-08-17T03:46:15;101103.63;;;17.55;100.00
60465;BME280;46314;52.392;9.758;2023-08-17T03:48:41;101104.78;;;17.54;100.00
60465;BME280;46314;52.392;9.758;2023-08-17T03:51:08;101115.09;;;17.41;100.00
60465;BME280;46314;52.392;9.758;2023-08-17T03:53:34;101112.16;;;17.68;100.00
60465;BME280;46314;52.392;9.758;2023-08-17T03:56:02;101119.38;;;17.69;100.00
60465;BME280;46314;52.392;9.758;2023-08-17T03:58:29;101114.16;;;17.58;100.00
60465;BME280;46314;52.392;9.758;2023-08-17T04:00:55;101113.16;;;17.25;100.00
60465;BME280;46314;52.392;9.758;2023-08-17T04:03:22;101116.13;;;17.28;100.00
60465;BME280;46314;52.392;9.758;2023-08-17T04:05:48;101112.47;;;17.36;100.00
60465;BME280;46314;52.392;9.758;2023-08-17T04:08:15;101104.31;;;17.52;100.00
60465;BME280;46314;52.392;9.758;2023-08-17T04:10:41;101121.00;;;17.49;100.00
60465;BME280;46314;52.392;9.758;2023-08-17T04:13:09;101124.69;;;17.32;100.00
60465;BME280;46314;52.392;9.758;2023-08-17T04:15:36;101122.84;;;17.36;100.00
60465;BME280;46314;52.392;9.758;2023-08-17T04:18:02;101131.06;;;17.41;100.00
60465;BME280;46314;52.392;9.758;2023-08-17T04:20:29;101137.75;;;17.28;100.00
60465;BME280;46314;52.392;9.758;2023-08-17T04:22:56;101127.44;;;17.40;100.00
60465;BME280;46314;52.392;9.758;2023-08-17T04:25:22;101136.88;;;17.36;100.00
60465;BME280;46314;52.392;9.758;2023-08-17T04:27:49;101128.16;;;17.29;100.00
60465;BME280;46314;52.392;9.758;2023-08-17T04:30:17;101131.66;;;17.26;100.00
60465;BME280;46314;52.392;9.758;2023-08-17T04:32:43;101126.81;;;17.35;100.00
60465;BME280;46314;52.392;9.758;2023-08-17T04:35:10;101137.44;;;17.59;100.00
60465;BME280;46314;52.392;9.758;2023-08-17T04:37:36;101137.84;;;17.40;100.00
60465;BME280;46314;52.392;9.758;2023-08-17T04:40:04;101136.94;;;17.57;100.00
60465;BME280;46314;52.392;9.758;2023-08-17T04:42:30;101136.53;;;17.37;100.00
60465;BME280;46314;52.392;9.758;2023-08-17T04:44:57;101141.78;;;17.77;100.00
60465;BME280;46314;52.392;9.758;2023-08-17T04:47:25;101140.97;;;17.47;100.00
60465;BME280;46314;52.392;9.758;2023-08-17T04:49:51;101141.53;;;17.62;100.00
60465;BME280;46314;52.392;9.758;2023-08-17T04:52:18;101147.97;;;17.62;100.00
60465;BME280;46314;52.392;9.758;2023-08-17T04:54:44;101144.22;;;17.58;100.00
60465;BME280;46314;52.392;9.758;2023-08-17T04:57:11;101140.97;;;17.47;100.00
60465;BME280;46314;52.392;9.758;2023-08-17T04:59:37;101149.34;;;17.56;100.00
60465;BME280;46314;52.392;9.758;2023-08-17T05:02:04;101145.50;;;17.60;100.00
60465;BME280;46314;52.392;9.758;2023-08-17T05:04:32;101155.81;;;17.77;100.00
60465;BME280;46314;52.392;9.758;2023-08-17T05:06:58;101146.44;;;17.35;100.00
60465;BME280;46314;52.392;9.758;2023-08-17T05:09:26;101141.38;;;17.96;100.00
60465;BME280;46314;52.392;9.758;2023-08-17T05:11:52;101150.88;;;17.74;100.00
60465;BME280;46314;52.392;9.758;2023-08-17T05:14:19;101144.44;;;17.74;100.00
60465;BME280;46314;52.392;9.758;2023-08-17T05:16:45;101148.19;;;18.38;100.00
60465;BME280;46314;52.392;9.758;2023-08-17T05:19:12;101169.03;;;17.86;100.00
60465;BME280;46314;52.392;9.758;2023-08-17T05:21:40;101165.78;;;18.05;100.00
60465;BME280;46314;52.392;9.758;2023-08-17T05:24:06;101170.22;;;18.06;100.00
60465;BME280;46314;52.392;9.758;2023-08-17T05:26:33;101163.44;;;18.07;100.00
60465;BME280;46314;52.392;9.758;2023-08-17T05:29:00;101166.72;;;18.09;100.00
60465;BME280;46314;52.392;9.758;2023-08-17T05:31:26;101164.03;;;17.83;100.00
60465;BME280;46314;52.392;9.758;2023-08-17T05:33:53;101175.06;;;18.47;100.00
60465;BME280;46314;52.392;9.758;2023-08-17T05:36:19;101174.69;;;18.07;100.00
60465;BME280;46314;52.392;9.758;2023-08-17T05:38:47;101180.38;;;18.61;100.00
60465;BME280;46314;52.392;9.758;2023-08-17T05:41:14;101171.06;;;18.48;100.00
60465;BME280;46314;52.392;9.758;2023-08-17T05:43:40;101179.94;;;17.78;100.00
60465;BME280;46314;52.392;9.758;2023-08-17T05:46:07;101182.53;;;17.84;100.00
60465;BME280;46314;52.392;9.758;2023-08-17T05:48:33;101174.13;;;17.84;100.00
60465;BME280;46314;52.392;9.758;2023-08-17T05:51:00;101181.53;;;17.88;100.00
60465;BME280;46314;52.392;9.758;2023-08-17T05:53:26;101179.38;;;17.85;100.00
60465;BME280;46314;52.392;9.758;2023-08-17T05:55:54;101177.78;;;17.75;100.00
60465;BME280;46314;52.392;9.758;2023-08-17T05:58:20;101177.81;;;18.05;100.00
60465;BME280;46314;52.392;9.758;2023-08-17T06:00:47;101181.81;;;17.95;100.00
60465;BME280;46314;52.392;9.758;2023-08-17T06:03:13;101179.75;;;17.84;100.00
60465;BME280;46314;52.392;9.758;2023-08-17T06:05:40;101181.41;;;18.35;100.00
60465;BME280;46314;52.392;9.758;2023-08-17T06:08:07;101185.91;;;18.07;100.00
60465;BME280;46314;52.392;9.758;2023-08-17T06:10:33;101191.72;;;18.02;100.00
60465;BME280;46314;52.392;9.758;2023-08-17T06:13:01;101185.28;;;18.01;100.00
60465;BME280;46314;52.392;9.758;2023-08-17T06:15:27;101192.56;;;18.23;100.00
60465;BME280;46314;52.392;9.758;2023-08-17T06:17:54;101185.22;;;18.10;100.00
60465;BME280;46314;52.392;9.758;2023-08-17T06:20:20;101192.94;;;18.13;100.00
60465;BME280;46314;52.392;9.758;2023-08-17T06:22:47;101191.56;;;18.49;100.00
60465;BME280;46314;52.392;9.758;2023-08-17T06:25:14;101191.56;;;18.49;100.00
60465;BME280;46314;52.392;9.758;2023-08-17T06:27:41;101194.13;;;18.84;100.00
60465;BME280;46314;52.392;9.758;2023-08-17T06:30:11;101192.56;;;18.44;100.00
60465;BME280;46314;52.392;9.758;2023-08-17T06:32:38;101197.34;;;19.07;100.00
60465;BME280;46314;52.392;9.758;2023-08-17T06:35:05;101193.91;;;19.01;100.00
60465;BME280;46314;52.392;9.758;2023-08-17T06:37:32;101200.00;;;18.49;100.00
60465;BME280;46314;52.392;9.758;2023-08-17T06:39:58;101201.94;;;18.27;100.00
60465;BME280;46314;52.392;9.758;2023-08-17T06:42:25;101199.06;;;18.36;100.00
60465;BME280;46314;52.392;9.758;2023-08-17T06:44:51;101194.03;;;18.50;100.00
60465;BME280;46314;52.392;9.758;2023-08-17T06:47:19;101195.53;;;18.48;100.00
60465;BME280;46314;52.392;9.758;2023-08-17T06:49:46;101199.91;;;18.37;100.00
60465;BME280;46314;52.392;9.758;2023-08-17T06:52:12;101195.13;;;18.58;100.00
60465;BME280;46314;52.392;9.758;2023-08-17T06:54:39;101206.75;;;18.27;100.00
60465;BME280;46314;52.392;9.758;2023-08-17T06:57:05;101210.44;;;19.03;100.00
60465;BME280;46314;52.392;9.758;2023-08-17T06:59:32;101201.13;;;18.27;100.00
60465;BME280;46314;52.392;9.758;2023-08-17T07:01:59;101198.53;;;18.43;100.00
60465;BME280;46314;52.392;9.758;2023-08-17T07:04:26;101197.72;;;18.63;100.00
60465;BME280;46314;52.392;9.758;2023-08-17T07:06:53;101201.88;;;18.36;100.00
60465;BME280;46314;52.392;9.758;2023-08-17T07:09:20;101204.34;;;18.38;100.00
60465;BME280;46314;52.392;9.758;2023-08-17T07:11:46;101201.53;;;18.80;100.00
60465;BME280;46314;52.392;9.758;2023-08-17T07:14:13;101199.53;;;18.47;100.00
60465;BME280;46314;52.392;9.758;2023-08-17T07:16:39;101201.13;;;18.69;100.00
60465;BME280;46314;52.392;9.758;2023-08-17T07:19:06;101199.00;;;18.45;100.00
60465;BME280;46314;52.392;9.758;2023-08-17T07:21:33;101202.88;;;18.82;100.00
60465;BME280;46314;52.392;9.758;2023-08-17T07:24:11;101199.00;;;18.45;100.00
60465;BME280;46314;52.392;9.758;2023-08-17T07:26:38;101210.38;;;19.11;100.00
60465;BME280;46314;52.392;9.758;2023-08-17T07:29:04;101204.91;;;18.52;100.00
60465;BME280;46314;52.392;9.758;2023-08-17T07:31:31;101201.88;;;18.57;100.00
60465;BME280;46314;52.392;9.758;2023-08-17T07:33:57;101205.41;;;18.33;100.00
60465;BME280;46314;52.392;9.758;2023-08-17T07:36:24;101207.41;;;18.24;100.00
60465;BME280;46314;52.392;9.758;2023-08-17T07:38:51;101201.97;;;18.48;100.00
60465;BME280;46314;52.392;9.758;2023-08-17T07:41:18;101205.75;;;18.02;100.00
60465;BME280;46314;52.392;9.758;2023-08-17T07:43:44;101204.28;;;17.95;100.00
60465;BME280;46314;52.392;9.758;2023-08-17T07:46:11;101207.38;;;18.74;100.00
60465;BME280;46314;52.392;9.758;2023-08-17T07:48:37;101212.31;;;18.35;100.00
60465;BME280;46314;52.392;9.758;2023-08-17T07:51:04;101207.78;;;17.92;100.00
60465;BME280;46314;52.392;9.758;2023-08-17T07:53:31;101204.47;;;17.90;100.00
60465;BME280;46314;52.392;9.758;2023-08-17T07:55:58;101214.41;;;17.88;100.00
60465;BME280;46314;52.392;9.758;2023-08-17T07:58:25;101217.16;;;18.26;100.00
60465;BME280;46314;52.392;9.758;2023-08-17T08:00:51;101217.88;;;18.14;100.00
60465;BME280;46314;52.392;9.758;2023-08-17T08:03:18;101224.19;;;18.11;100.00
60465;BME280;46314;52.392;9.758;2023-08-17T08:05:44;101223.44;;;18.23;100.00
60465;BME280;46314;52.392;9.758;2023-08-17T08:08:11;101217.66;;;17.98;100.00
60465;BME280;46314;52.392;9.758;2023-08-17T08:10:37;101234.78;;;18.06;100.00
60465;BME280;46314;52.392;9.758;2023-08-17T08:13:05;101225.50;;;18.14;100.00
60465;BME280;46314;52.392;9.758;2023-08-17T08:15:33;101226.59;;;17.92;100.00
60465;BME280;46314;52.392;9.758;2023-08-17T08:17:59;101225.53;;;18.35;100.00
60465;BME280;46314;52.392;9.758;2023-08-17T08:20:26;101234.78;;;18.06;100.00
60465;BME280;46314;52.392;9.758;2023-08-17T08:22:52;101232.59;;;18.11;100.00
60465;BME280;46314;52.392;9.758;2023-08-17T08:25:19;101222.69;;;18.65;100.00
60465;BME280;46314;52.392;9.758;2023-08-17T08:27:45;101233.28;;;18.38;100.00
60465;BME280;46314;52.392;9.758;2023-08-17T08:30:13;101224.06;;;17.99;100.00
60465;BME280;46314;52.392;9.758;2023-08-17T08:32:40;101228.41;;;17.96;100.00
60465;BME280;46314;52.392;9.758;2023-08-17T08:35:07;101227.59;;;18.26;100.00
60465;BME280;46314;52.392;9.758;2023-08-17T08:37:33;101234.69;;;17.85;100.00
60465;BME280;46314;52.392;9.758;2023-08-17T08:40:00;101221.78;;;18.22;100.00
60465;BME280;46314;52.392;9.758;2023-08-17T08:42:26;101226.59;;;17.92;100.00
60465;BME280;46314;52.392;9.758;2023-08-17T08:44:53;101225.50;;;18.14;100.00
60465;BME280;46314;52.392;9.758;2023-08-17T08:47:21;101225.13;;;18.45;100.00
60465;BME280;46314;52.392;9.758;2023-08-17T08:49:50;101226.16;;;18.41;100.00
60465;BME280;46314;52.392;9.758;2023-08-17T08:52:23;101223.63;;;18.48;100.00
60465;BME280;46314;52.392;9.758;2023-08-17T08:54:55;101222.56;;;18.82;100.00
60465;BME280;46314;52.392;9.758;2023-08-17T08:57:23;101225.47;;;18.44;100.00
60465;BME280;46314;52.392;9.758;2023-08-17T08:59:51;101220.06;;;18.39;100.00
60465;BME280;46314;52.392;9.758;2023-08-17T09:02:24;101222.09;;;18.29;100.00
60465;BME280;46314;52.392;9.758;2023-08-17T09:04:51;101216.50;;;18.71;100.00
60465;BME280;46314;52.392;9.758;2023-08-17T09:07:18;101224.16;;;18.41;100.00
60465;BME280;46314;52.392;9.758;2023-08-17T09:09:45;101226.59;;;18.22;100.00
60465;BME280;46314;52.392;9.758;2023-08-17T09:12:11;101230.00;;;18.57;100.00
60465;BME280;46314;52.392;9.758;2023-08-17T09:14:39;101219.69;;;18.91;100.00
60465;BME280;46314;52.392;9.758;2023-08-17T09:17:05;101228.22;;;18.52;100.00
60465;BME280;46314;52.392;9.758;2023-08-17T09:19:33;101239.00;;;18.21;100.00
60465;BME280;46314;52.392;9.758;2023-08-17T09:22:00;101235.03;;;17.83;100.00
60465;BME280;46314;52.392;9.758;2023-08-17T09:24:33;101227.41;;;18.01;100.00
60465;BME280;46314;52.392;9.758;2023-08-17T09:27:00;101224.81;;;17.87;100.00
60465;BME280;46314;52.392;9.758;2023-08-17T09:29:27;101218.50;;;18.20;100.00
60465;BME280;46314;52.392;9.758;2023-08-17T09:31:54;101228.41;;;18.47;100.00
60465;BME280;46314;52.392;9.758;2023-08-17T09:34:20;101218.25;;;18.34;100.00
60465;BME280;46314;52.392;9.758;2023-08-17T09:36:48;101216.13;;;18.52;100.00
60465;BME280;46314;52.392;9.758;2023-08-17T09:39:15;101223.31;;;17.90;100.00
60465;BME280;46314;52.392;9.758;2023-08-17T09:41:42;101229.50;;;18.04;100.00
60465;BME280;46314;52.392;9.758;2023-08-17T09:44:09;101228.63;;;17.74;100.00
60465;BME280;46314;52.392;9.758;2023-08-17T09:46:37;101222.53;;;17.72;100.00
60465;BME280;46314;52.392;9.758;2023-08-17T09:49:04;101218.78;;;17.97;100.00
60465;BME280;46314;52.392;9.758;2023-08-17T09:51:31;101222.09;;;17.61;100.00
60465;BME280;46314;52.392;9.758;2023-08-17T09:53:59;101223.56;;;18.06;100.00
60465;BME280;46314;52.392;9.758;2023-08-17T09:56:26;101221.16;;;17.78;100.00
60465;BME280;46314;52.392;9.758;2023-08-17T09:58:53;101214.41;;;17.88;100.00
60465;BME280;46314;52.392;9.758;2023-08-17T10:01:21;101219.44;;;17.65;100.00
60465;BME280;46314;52.392;9.758;2023-08-17T10:03:48;101216.88;;;17.42;100.00
60465;BME280;46314;52.392;9.758;2023-08-17T10:06:20;101217.38;;;17.35;100.00
60465;BME280;46314;52.392;9.758;2023-08-17T10:08:52;101232.50;;;17.52;100.00
60465;BME280;46314;52.392;9.758;2023-08-17T10:11:23;101220.31;;;17.39;100.00
60465;BME280;46314;52.392;9.758;2023-08-17T10:13:51;101232.84;;;17.50;100.00
60465;BME280;46314;52.392;9.758;2023-08-17T10:16:22;101220.16;;;17.44;100.00
60465;BME280;46314;52.392;9.758;2023-08-17T10:19:03;101223.06;;;17.65;100.00
60465;BME280;46314;52.392;9.758;2023-08-17T10:21:37;101218.81;;;18.48;100.00
60465;BME280;46314;52.392;9.758;2023-08-17T10:24:07;101219.53;;;17.77;100.00
60465;BME280;46314;52.392;9.758;2023-08-17T10:26:35;101214.56;;;17.83;100.00
60465;BME280;46314;52.392;9.758;2023-08-17T10:29:02;101218.59;;;17.64;100.00
60465;BME280;46314;52.392;9.758;2023-08-17T10:31:39;101225.38;;;17.63;100.00
60465;BME280;46314;52.392;9.758;2023-08-17T10:34:06;101212.94;;;17.34;100.00
60465;BME280;46314;52.392;9.758;2023-08-17T10:36:32;101211.25;;;17.42;100.00
60465;BME280;46314;52.392;9.758;2023-08-17T10:39:18;101218.59;;;17.64;100.00
60465;BME280;46314;52.392;9.758;2023-08-17T10:41:48;101218.31;;;17.48;100.00
60465;BME280;46314;52.392;9.758;2023-08-17T10:44:15;101222.81;;;18.68;100.00
60465;BME280;46314;52.392;9.758;2023-08-17T10:46:42;101224.16;;;19.04;100.00
60465;BME280;46314;52.392;9.758;2023-08-17T10:49:25;101233.34;;;17.52;100.00
60465;BME280;46314;52.392;9.758;2023-08-17T10:52:02;101230.78;;;17.77;100.00
60465;BME280;46314;52.392;9.758;2023-08-17T10:54:36;101239.81;;;18.21;100.00
60465;BME280;46314;52.392;9.758;2023-08-17T10:57:34;101237.78;;;18.01;100.00
60465;BME280;46314;52.392;9.758;2023-08-17T11:00:23;101246.31;;;18.13;100.00
60465;BME280;46314;52.392;9.758;2023-08-17T11:02:52;101251.56;;;18.44;100.00
60465;BME280;46314;52.392;9.758;2023-08-17T11:05:34;101249.38;;;17.82;100.00
60465;BME280;46314;52.392;9.758;2023-08-17T11:08:01;101249.88;;;17.28;100.00
60465;BME280;46314;52.392;9.758;2023-08-17T11:10:28;101258.81;;;16.95;100.00
60465;BME280;46314;52.392;9.758;2023-08-17T11:12:56;101252.06;;;17.22;100.00
60465;BME280;46314;52.392;9.758;2023-08-17T11:15:25;101255.38;;;17.07;100.00
60465;BME280;46314;52.392;9.758;2023-08-17T11:17:52;101265.06;;;16.92;100.00
60465;BME280;46314;52.392;9.758;2023-08-17T11:20:18;101257.41;;;17.53;100.00
60465;BME280;46314;52.392;9.758;2023-08-17T11:22:45;101264.94;;;18.17;100.00
60465;BME280;46314;52.392;9.758;2023-08-17T11:25:12;101263.09;;;18.22;100.00
60465;BME280;46314;52.392;9.758;2023-08-17T11:27:39;101264.19;;;18.38;100.00
60465;BME280;46314;52.392;9.758;2023-08-17T11:30:08;101259.41;;;17.44;100.00
60465;BME280;46314;52.392;9.758;2023-08-17T11:32:35;101265.03;;;17.44;100.00
60465;BME280;46314;52.392;9.758;2023-08-17T11:35:02;101267.19;;;17.30;100.00
60465;BME280;46314;52.392;9.758;2023-08-17T11:37:28;101262.28;;;17.00;100.00
60465;BME280;46314;52.392;9.758;2023-08-17T11:39:55;101264.72;;;17.37;100.00
60465;BME280;46314;52.392;9.758;2023-08-17T11:42:22;101262.09;;;18.26;100.00
60465;BME280;46314;52.392;9.758;2023-08-17T11:44:48;101269.50;;;17.45;100.00
60465;BME280;46314;52.392;9.758;2023-08-17T11:47:16;101266.06;;;18.97;100.00
60465;BME280;46314;52.392;9.758;2023-08-17T11:49:43;101271.06;;;17.64;100.00
60465;BME280;46314;52.392;9.758;2023-08-17T11:52:10;101268.34;;;18.83;100.00
60465;BME280;46314;52.392;9.758;2023-08-17T11:54:40;101269.38;;;18.48;100.00
60465;BME280;46314;52.392;9.758;2023-08-17T11:57:06;101272.84;;;18.24;100.00
60465;BME280;46314;52.392;9.758;2023-08-17T11:59:33;101273.00;;;17.81;100.00
60465;BME280;46314;52.392;9.758;2023-08-17T12:02:00;101272.84;;;18.24;100.00
60465;BME280;46314;52.392;9.758;2023-08-17T12:04:28;101267.88;;;18.51;100.00
60465;BME280;46314;52.392;9.758;2023-08-17T12:06:55;101262.00;;;17.67;100.00
60465;BME280;46314;52.392;9.758;2023-08-17T12:09:21;101267.31;;;18.07;100.00
60465;BME280;46314;52.392;9.758;2023-08-17T12:11:48;101268.19;;;17.98;100.00
60465;BME280;46314;52.392;9.758;2023-08-17T12:14:14;101271.34;;;17.88;100.00
60465;BME280;46314;52.392;9.758;2023-08-17T12:16:47;101270.75;;;17.56;100.00
60465;BME280;46314;52.392;9.758;2023-08-17T12:19:14;101271.69;;;17.87;100.00
60465;BME280;46314;52.392;9.758;2023-08-17T12:21:42;101270.78;;;18.04;100.00
60465;BME280;46314;52.392;9.758;2023-08-17T12:24:09;101268.38;;;18.74;100.00
60465;BME280;46314;52.392;9.758;2023-08-17T12:26:36;101267.50;;;18.61;100.00
60465;BME280;46314;52.392;9.758;2023-08-17T12:29:04;101268.44;;;18.14;100.00
60465;BME280;46314;52.392;9.758;2023-08-17T12:31:31;101263.41;;;17.43;100.00
60465;BME280;46314;52.392;9.758;2023-08-17T12:33:58;101264.59;;;17.81;100.00
60465;BME280;46314;52.392;9.758;2023-08-17T12:36:24;101259.38;;;18.39;100.00
60465;BME280;46314;52.392;9.758;2023-08-17T12:38:52;101255.72;;;17.70;100.00
60465;BME280;46314;52.392;9.758;2023-08-17T12:41:18;101259.84;;;18.11;100.00
60465;BME280;46314;52.392;9.758;2023-08-17T12:43:45;101256.88;;;18.16;100.00